Tiptree, United Kingdom
Current Conditions -  °F | °C
As of 10:50 PM on Wednesday 17 Dec 2014 (Local Time) from EGMC Reporting Station
Rain Showers Rain Showers  
Wind Chill: 12°   Ceiling: 1400
Heat Index: 12°   Visibility: 6mi
Dew Point: 10°   Wind: 10mph
Humidity: 88%   Direction: 250°WSW
Pressure: 29.77"   Gusts: NA
Location:  51.81°N, 0.75°E
Report Text: EGMC 172250Z 25009KT 9999 VCSH FEW005 OVC014 12/10 Q1008
Loading
Personal Weather Stations






























Interactive Weather Map New forecast layout! Learn more

10-Day Weather Forecast

Advertisements
Track Severe Weather on mobile